Impacts METAR Board INFO
IDs:

KEWR - Newark Intl, NJ, US

Updated at: 0950 UTC 18 Jan 2018
Potential Impact None Slight Moderate High
Time17/21Z 17/22Z 17/23Z 18/00Z 18/01Z 18/02Z 18/03Z 18/04Z 18/05Z 18/06Z 18/07Z 18/08Z 18/09Z
VIS10 10 10 10 10 10 10 10 10 10 10 10 10
CIG21 130 160 190 180 170 190 -- -- -- -- -- --
CoverOVCOVCBKNBKNBKNBKNBKNSCTFEWFEWCLRCLRCLR
FltCatMVFRVFRVFRVFRVFRVFRVFRVFRVFRVFRVFRVFRVFR
WX--------------------------
WDir300320310310320320340330320300290310320
WSpd10 13 8 10 12 10 14 13 7 11 10 9 11
WGst-- 18 19 18 -- -- 21 19 -- -- -- -- --
Raw hourly METARs
KEWR 172051Z 30010KT 10SM OVC021 M01/M05 A3020 RMK AO2 SLP224 SNE1459 P0000 60000 T10061050 55006
KEWR 172151Z 32013G18KT 10SM SCT024 BKN130 OVC200 M02/M06 A3019 RMK AO2 SLP221 T10171061
KEWR 172251Z 31008G19KT 10SM FEW025 SCT130 BKN160 BKN250 M02/M08 A3020 RMK AO2 SLP224 T10221078
KEWR 172351Z 31010G18KT 10SM FEW030 SCT150 BKN190 BKN250 M03/M09 A3019 RMK AO2 SLP223 931000 60000 T10281089 10017 21028 56001
KEWR 180051Z 32012KT 10SM FEW030 FEW140 BKN180 BKN250 M04/M11 A3020 RMK AO2 SLP225 T10391106
KEWR 180151Z 32010KT 10SM FEW030 BKN170 BKN250 M04/M12 A3020 RMK AO2 SLP226 T10441117
KEWR 180251Z 34014G21KT 10SM SCT025 BKN190 M05/M13 A3020 RMK AO2 SLP224 T10501128 50001
KEWR 180351Z 33013G19KT 10SM FEW025 SCT190 M06/M13 A3019 RMK AO2 SLP223 T10561128
KEWR 180451Z 32007KT 10SM FEW025 FEW200 M06/M13 A3018 RMK AO2 SLP219 T10561128 400221056
KEWR 180551Z 30011KT 10SM FEW220 M07/M13 A3015 RMK AO2 SLP210 T10671128 11028 21067 58014
KEWR 180651Z 29010KT 10SM CLR M07/M13 A3015 RMK AO2 SLP209 T10721128
KEWR 180751Z 31009KT 10SM CLR M07/M13 A3013 RMK AO2 SLP203 T10721128
KEWR 180851Z 32011KT 10SM CLR M07/M13 A3007 RMK AO2 PRESFR SLP183 T10721133 58027